Time;durP1;ratioP1;P1;durP2;ratioP2;P2;SDS_P1;SDS_P2;PMS_P1;PMS_P2;Temp;Humidity;BMP_temperature;BMP_pressure;BME280_temperature;BME280_humidity;BME280_pressure;Samples;Min_cycle;Max_cycle;Signal;HPM_P1;HPM_P2
2021/03/30 00:01:23;;;;;;;4.85;1.83;;;9.10;99.90;;;;;;4927170;29;20035;-96
2021/03/30 00:03:49;;;;;;;6.25;1.85;;;9.10;99.90;;;;;;4928602;29;20114;-96
2021/03/30 00:06:15;;;;;;;4.45;1.70;;;9.10;99.90;;;;;;4929110;29;20114;-96
2021/03/30 00:08:41;;;;;;;8.30;1.95;;;9.00;99.90;;;;;;4928465;29;20024;-96
2021/03/30 00:11:07;;;;;;;3.97;1.48;;;9.00;99.90;;;;;;4928547;29;20042;-96
2021/03/30 00:13:34;;;;;;;12.60;2.17;;;9.00;99.90;;;;;;4928549;29;20034;-95
2021/03/30 00:16:00;;;;;;;7.70;3.08;;;8.90;99.90;;;;;;4928445;29;20369;-95
2021/03/30 00:18:26;;;;;;;8.52;1.92;;;8.80;99.90;;;;;;4926366;29;20028;-96
2021/03/30 00:20:52;;;;;;;3.85;1.40;;;8.80;99.90;;;;;;4927508;29;20028;-95
2021/03/30 00:23:18;;;;;;;4.82;1.50;;;8.80;99.90;;;;;;4932463;29;20082;-96
2021/03/30 00:25:44;;;;;;;4.35;1.70;;;8.70;99.90;;;;;;4935465;29;20067;-96
2021/03/30 00:28:10;;;;;;;4.72;1.70;;;8.60;99.90;;;;;;4932044;29;20473;-94
2021/03/30 00:30:37;;;;;;;6.68;2.05;;;8.50;99.90;;;;;;4931456;29;20023;-96
2021/03/30 00:33:03;;;;;;;4.45;1.77;;;8.40;99.90;;;;;;4927955;29;20032;-95
2021/03/30 00:35:29;;;;;;;6.20;1.40;;;8.40;99.90;;;;;;4928463;29;20091;-96
2021/03/30 00:37:55;;;;;;;4.07;1.60;;;8.30;99.90;;;;;;4927521;29;20059;-96
2021/03/30 00:40:20;;;;;;;4.80;1.85;;;8.30;99.90;;;;;;4927662;29;20024;-95
2021/03/30 00:42:46;;;;;;;8.32;1.85;;;8.20;99.90;;;;;;4927853;29;20032;-95
2021/03/30 00:45:13;;;;;;;3.90;1.50;;;8.20;99.90;;;;;;4927313;29;20055;-95
2021/03/30 00:47:44;;;;;;;4.13;2.00;;;8.10;99.90;;;;;;4927240;29;20031;-95
2021/03/30 00:50:13;;;;;;;5.07;1.80;;;8.10;99.90;;;;;;4927395;29;20521;-95
2021/03/30 00:52:41;;;;;;;5.90;2.38;;;8.10;99.90;;;;;;4927123;29;20062;-94
2021/03/30 00:55:07;;;;;;;5.70;2.00;;;8.00;99.90;;;;;;4922888;29;20055;-94
2021/03/30 00:57:35;;;;;;;6.20;1.98;;;8.00;99.90;;;;;;4924218;29;20119;-95
2021/03/30 01:00:06;;;;;;;9.32;2.13;;;7.90;99.90;;;;;;4924217;29;20032;-95
2021/03/30 01:02:32;;;;;;;8.60;2.50;;;7.90;99.90;;;;;;4924006;29;20023;-95
2021/03/30 01:04:59;;;;;;;3.75;1.80;;;7.90;99.90;;;;;;4922983;29;20086;-96
2021/03/30 01:07:25;;;;;;;7.15;2.30;;;8.00;99.90;;;;;;4923062;29;20032;-96
2021/03/30 01:09:57;;;;;;;4.13;2.10;;;8.10;99.90;;;;;;4922851;29;20477;-96
2021/03/30 01:12:45;;;;;;;13.60;2.92;;;8.10;99.90;;;;;;4907787;29;20036;-95
2021/03/30 01:15:23;;;;;;;5.10;2.53;;;8.10;99.90;;;;;;4905060;29;20410;-94
2021/03/30 01:18:12;;;;;;;5.53;1.85;;;8.00;99.90;;;;;;4904893;29;20128;-95
2021/03/30 01:21:09;;;;;;;4.20;2.08;;;8.00;99.90;;;;;;4904472;29;20028;-95
2021/03/30 01:23:56;;;;;;;6.18;2.40;;;7.90;99.90;;;;;;4904993;29;20036;-94
2021/03/30 01:26:25;;;;;;;6.53;2.15;;;7.90;99.90;;;;;;4905383;29;20033;-94
2021/03/30 01:29:18;;;;;;;6.50;3.10;;;7.90;99.90;;;;;;4904439;29;20032;-95
2021/03/30 01:31:48;;;;;;;11.18;3.47;;;7.80;99.90;;;;;;4903689;29;20087;-95
2021/03/30 01:34:18;;;;;;;7.38;2.53;;;7.80;99.90;;;;;;4903830;29;20092;-95
2021/03/30 01:36:45;;;;;;;6.95;2.88;;;7.80;99.90;;;;;;4903806;29;20024;-95
2021/03/30 01:39:14;;;;;;;8.15;2.97;;;7.70;99.90;;;;;;4903349;29;20055;-95
2021/03/30 01:41:44;;;;;;;5.45;2.50;;;7.70;99.90;;;;;;4903685;29;20119;-96
2021/03/30 01:44:11;;;;;;;6.93;2.67;;;7.70;99.90;;;;;;4904179;29;20059;-96
2021/03/30 01:46:40;;;;;;;10.98;3.13;;;7.70;99.90;;;;;;4904382;29;20134;-96
2021/03/30 01:49:07;;;;;;;4.90;2.40;;;7.60;99.90;;;;;;4905062;29;20028;-96
2021/03/30 01:51:34;;;;;;;8.93;2.97;;;7.60;99.90;;;;;;4903518;29;20055;-95
2021/03/30 01:54:00;;;;;;;6.35;2.85;;;7.50;99.90;;;;;;4904139;29;20051;-95
2021/03/30 01:56:29;;;;;;;11.32;3.38;;;7.50;99.90;;;;;;4905375;29;20063;-96
2021/03/30 01:58:58;;;;;;;6.30;3.40;;;7.40;99.90;;;;;;4904889;29;20394;-96
2021/03/30 02:01:25;;;;;;;7.38;2.92;;;7.30;99.90;;;;;;4920092;29;20116;-96
2021/03/30 02:03:52;;;;;;;7.00;2.50;;;7.20;99.90;;;;;;4925908;29;20383;-96
2021/03/30 02:06:19;;;;;;;7.15;2.85;;;7.20;99.90;;;;;;4910415;29;20048;-95
2021/03/30 02:08:45;;;;;;;3.67;2.40;;;7.20;99.90;;;;;;4925929;29;20013;-95
2021/03/30 02:11:20;;;;;;;13.63;4.45;;;7.20;99.90;;;;;;4913527;29;20054;-95
2021/03/30 02:13:54;;;;;;;6.53;3.47;;;7.20;99.90;;;;;;4909678;29;20038;-96
2021/03/30 02:16:24;;;;;;;7.40;2.83;;;7.20;99.90;;;;;;4907956;29;20193;-95
2021/03/30 02:18:57;;;;;;;7.30;2.83;;;7.20;99.90;;;;;;4906825;29;20472;-96
2021/03/30 02:21:32;;;;;;;5.25;2.50;;;7.00;99.90;;;;;;4906536;29;20028;-95
2021/03/30 02:24:02;;;;;;;13.00;2.88;;;7.00;99.90;;;;;;4905547;29;20024;-96
2021/03/30 02:26:30;;;;;;;5.80;2.67;;;6.90;99.90;;;;;;4905048;29;20035;-96
2021/03/30 02:28:58;;;;;;;7.18;3.30;;;6.80;99.90;;;;;;4905230;29;20127;-96
2021/03/30 02:31:30;;;;;;;9.77;3.22;;;6.80;99.90;;;;;;4903697;29;20043;-95
2021/03/30 02:34:00;;;;;;;11.35;4.00;;;6.80;99.90;;;;;;4905280;29;20665;-96
2021/03/30 02:36:29;;;;;;;12.55;3.17;;;6.80;99.90;;;;;;4904867;29;20028;-96
2021/03/30 02:39:08;;;;;;;10.43;3.33;;;6.80;99.90;;;;;;4904860;29;20474;-95
2021/03/30 02:41:36;;;;;;;5.70;3.33;;;6.80;99.90;;;;;;4904965;29;20111;-96
2021/03/30 02:44:03;;;;;;;11.50;3.88;;;6.70;99.90;;;;;;4904138;29;20032;-96
2021/03/30 02:46:32;;;;;;;6.72;3.05;;;6.60;99.90;;;;;;4903780;29;20127;-95
2021/03/30 02:48:59;;;;;;;10.30;3.47;;;6.60;99.90;;;;;;4904538;29;20036;-95
2021/03/30 02:51:29;;;;;;;7.28;3.33;;;6.60;99.90;;;;;;4904436;29;20028;-96
2021/03/30 02:53:56;;;;;;;8.90;4.00;;;6.70;99.90;;;;;;4903700;29;20020;-95
2021/03/30 02:56:24;;;;;;;7.80;3.40;;;6.70;99.90;;;;;;4903926;29;20035;-96
2021/03/30 02:58:54;;;;;;;5.35;2.72;;;6.60;99.90;;;;;;4904792;29;20092;-95
2021/03/30 03:01:24;;;;;;;6.82;3.00;;;6.60;99.90;;;;;;4904958;29;20118;-96
2021/03/30 03:03:52;;;;;;;9.15;3.80;;;6.60;99.90;;;;;;4909326;29;20035;-95
2021/03/30 03:06:18;;;;;;;6.40;3.40;;;6.60;99.90;;;;;;4909596;29;20130;-95
2021/03/30 03:08:48;;;;;;;8.27;3.25;;;6.60;99.90;;;;;;4908215;29;20028;-95
2021/03/30 03:11:15;;;;;;;8.97;3.97;;;6.60;99.90;;;;;;4905115;29;20044;-94
2021/03/30 03:13:45;;;;;;;9.48;3.65;;;6.70;99.90;;;;;;4902743;29;20276;-95
2021/03/30 03:16:12;;;;;;;9.05;3.90;;;6.60;99.90;;;;;;4902521;29;20097;-94
2021/03/30 03:18:40;;;;;;;6.15;2.72;;;6.60;99.90;;;;;;4902047;29;20083;-95
2021/03/30 03:21:11;;;;;;;10.73;4.10;;;6.60;99.90;;;;;;4902851;29;20070;-95
2021/03/30 03:23:38;;;;;;;10.73;3.80;;;6.60;99.90;;;;;;4902964;29;20028;-95
2021/03/30 03:26:06;;;;;;;8.80;3.50;;;6.60;99.90;;;;;;4902375;29;20040;-95
2021/03/30 03:28:32;;;;;;;10.55;3.38;;;6.40;99.90;;;;;;4903124;29;20024;-95
2021/03/30 03:30:58;;;;;;;11.05;3.85;;;6.30;99.90;;;;;;4902549;29;20028;-96
2021/03/30 03:33:24;;;;;;;7.45;3.03;;;6.30;99.90;;;;;;4903039;29;20035;-95
2021/03/30 03:36:11;;;;;;;5.55;3.38;;;6.20;99.90;;;;;;4902436;29;20032;-96
2021/03/30 03:38:41;;;;;;;10.25;3.17;;;6.30;99.90;;;;;;4903807;29;20024;-96
2021/03/30 03:41:09;;;;;;;10.88;4.35;;;6.30;99.90;;;;;;4902946;29;20032;-96
2021/03/30 03:43:35;;;;;;;11.60;3.80;;;6.30;99.90;;;;;;4903120;29;20036;-95
2021/03/30 03:46:01;;;;;;;11.50;4.00;;;6.20;99.90;;;;;;4902754;29;20044;-96
2021/03/30 03:48:27;;;;;;;7.88;3.30;;;6.20;99.90;;;;;;4901996;29;20028;-95
2021/03/30 03:50:57;;;;;;;11.48;3.50;;;6.20;99.90;;;;;;4902521;29;20478;-94
2021/03/30 03:53:25;;;;;;;6.70;3.20;;;6.20;99.90;;;;;;4903563;29;20051;-96
2021/03/30 03:55:54;;;;;;;8.23;3.17;;;6.20;99.90;;;;;;4902412;29;20028;-96
2021/03/30 03:58:25;;;;;;;7.63;3.92;;;6.10;99.90;;;;;;4901769;29;20093;-95
2021/03/30 04:00:51;;;;;;;;;;;6.10;99.90;;;;;;4902367;29;20024;-95
2021/03/30 04:03:47;;;;;;;9.13;4.20;;;6.10;99.90;;;;;;4902160;29;19907;-96
2021/03/30 04:06:21;;;;;;;8.45;3.10;;;6.00;99.90;;;;;;4893865;29;20048;-95
2021/03/30 04:08:52;;;;;;;12.00;4.93;;;6.00;99.90;;;;;;4901189;29;20032;-94
2021/03/30 04:11:20;;;;;;;10.85;4.35;;;6.00;99.90;;;;;;4901400;29;20032;-96
2021/03/30 04:13:47;;;;;;;14.23;4.40;;;6.00;99.90;;;;;;4901128;29;20024;-96
2021/03/30 04:16:13;;;;;;;10.45;4.35;;;5.90;99.90;;;;;;4901790;29;20036;-95
2021/03/30 04:18:40;;;;;;;8.93;4.72;;;5.90;99.90;;;;;;4897754;29;20032;-95
2021/03/30 04:21:30;;;;;;;9.63;4.85;;;5.90;99.90;;;;;;4897500;29;20058;-96
2021/03/30 04:23:58;;;;;;;9.55;4.70;;;5.80;99.90;;;;;;4901299;29;20033;-96
2021/03/30 04:26:24;;;;;;;16.27;7.60;;;5.80;99.90;;;;;;4900820;29;20156;-95
2021/03/30 04:28:49;;;;;;;9.40;4.63;;;5.80;99.90;;;;;;4903310;29;20064;-96
2021/03/30 04:31:15;;;;;;;8.05;4.03;;;5.70;99.90;;;;;;4905669;29;20087;-94
2021/03/30 04:33:41;;;;;;;8.95;4.15;;;5.70;99.90;;;;;;4904965;29;20028;-95
2021/03/30 04:36:07;;;;;;;8.43;4.78;;;5.70;99.90;;;;;;4904439;29;20471;-96
2021/03/30 04:38:33;;;;;;;11.93;4.68;;;5.70;99.90;;;;;;4904436;29;20103;-95
2021/03/30 04:40:59;;;;;;;9.10;3.85;;;5.60;99.90;;;;;;4904365;29;20490;-96
2021/03/30 04:43:26;;;;;;;12.60;5.78;;;5.60;99.90;;;;;;4904155;29;20020;-96
2021/03/30 04:45:51;;;;;;;12.77;4.85;;;5.60;99.90;;;;;;4904282;29;20552;-95
2021/03/30 04:48:18;;;;;;;8.88;4.38;;;5.50;99.90;;;;;;4904631;29;20024;-95
2021/03/30 04:50:44;;;;;;;16.08;5.72;;;5.50;99.90;;;;;;4904602;29;20036;-96
2021/03/30 04:53:11;;;;;;;12.50;4.97;;;5.40;99.90;;;;;;4920071;29;20055;-96
2021/03/30 04:55:37;;;;;;;13.70;4.93;;;5.40;99.90;;;;;;4926263;29;20470;-96
2021/03/30 04:58:03;;;;;;;9.77;4.10;;;5.40;99.90;;;;;;4929193;29;20019;-96
2021/03/30 05:00:29;;;;;;;7.80;4.40;;;5.50;99.90;;;;;;4928371;29;20019;-96
2021/03/30 05:02:55;;;;;;;9.30;4.47;;;5.50;99.90;;;;;;4928838;29;20056;-96
2021/03/30 05:05:22;;;;;;;10.75;5.05;;;5.50;99.90;;;;;;4930339;29;20028;-95
2021/03/30 05:07:47;;;;;;;10.48;4.90;;;5.50;99.90;;;;;;4927628;29;20039;-96
2021/03/30 05:10:14;;;;;;;13.27;5.13;;;5.50;99.90;;;;;;4927483;29;20485;-96
2021/03/30 05:12:40;;;;;;;15.35;5.05;;;5.50;99.90;;;;;;4931438;29;20079;-96
2021/03/30 05:15:07;;;;;;;11.98;4.93;;;5.40;99.90;;;;;;4930349;29;20490;-96
2021/03/30 05:17:35;;;;;;;11.63;5.00;;;5.40;99.90;;;;;;4930190;29;20034;-95
2021/03/30 05:20:02;;;;;;;11.07;5.15;;;5.40;99.90;;;;;;4932648;29;20047;-96
2021/03/30 05:22:31;;;;;;;14.25;5.38;;;5.40;99.90;;;;;;4946471;29;20072;-96
2021/03/30 05:24:57;;;;;;;14.05;6.43;;;5.30;99.90;;;;;;4945478;28;20040;-96
2021/03/30 05:27:23;;;;;;;14.23;8.60;;;5.30;99.90;;;;;;4945481;28;20072;-96
2021/03/30 05:29:50;;;;;;;15.40;8.82;;;5.30;99.90;;;;;;4945323;28;20019;-96
2021/03/30 05:32:17;;;;;;;14.52;6.97;;;5.30;99.90;;;;;;4937459;29;20036;-96
2021/03/30 05:34:47;;;;;;;16.08;8.30;;;5.20;99.90;;;;;;4933429;29;20024;-96
2021/03/30 05:37:14;;;;;;;12.30;6.40;;;5.20;99.90;;;;;;4932512;29;20031;-96
2021/03/30 05:39:40;;;;;;;11.20;5.13;;;5.10;99.90;;;;;;4929695;29;20032;-96
2021/03/30 05:42:06;;;;;;;13.65;6.18;;;5.10;99.90;;;;;;4929509;29;20040;-96
2021/03/30 05:44:36;;;;;;;14.45;6.93;;;5.10;99.90;;;;;;4933151;29;20031;-96
2021/03/30 05:47:31;;;;;;;13.00;7.45;;;5.10;99.90;;;;;;4956999;29;20059;-96
2021/03/30 05:50:13;;;;;;;10.57;5.43;;;5.00;99.90;;;;;;4953890;29;20047;-96
2021/03/30 05:53:11;;;;;;;8.65;5.10;;;5.00;99.90;;;;;;4936218;29;20045;-96
2021/03/30 05:55:43;;;;;;;11.55;5.90;;;5.00;99.90;;;;;;4927122;29;20031;-95
2021/03/30 05:58:10;;;;;;;16.17;6.85;;;5.00;99.90;;;;;;4930810;29;20031;-95
2021/03/30 06:00:39;;;;;;;13.68;6.35;;;4.90;99.90;;;;;;4930185;29;20055;-96
2021/03/30 06:03:09;;;;;;;14.77;5.65;;;4.90;99.90;;;;;;4944848;29;20027;-96
2021/03/30 06:05:38;;;;;;;13.02;5.72;;;4.90;99.90;;;;;;4924537;29;20032;-96
2021/03/30 06:08:07;;;;;;;10.38;4.32;;;4.90;99.90;;;;;;4920371;29;20035;-96
2021/03/30 06:10:35;;;;;;;13.25;6.03;;;4.80;99.90;;;;;;4924153;29;20051;-96
2021/03/30 06:13:04;;;;;;;12.60;6.10;;;4.80;99.90;;;;;;4923802;29;20035;-96
2021/03/30 06:15:35;;;;;;;12.75;5.93;;;4.80;99.90;;;;;;4923168;29;20031;-96
2021/03/30 06:18:16;;;;;;;14.57;5.82;;;4.80;99.90;;;;;;4920836;29;20032;-96
2021/03/30 06:20:42;;;;;;;;;;;4.70;99.90;;;;;;4921310;29;20016;-96
2021/03/30 06:23:08;;;;;;;9.68;5.55;;;4.80;99.90;;;;;;4923931;29;19946;-96
2021/03/30 06:25:40;;;;;;;9.23;4.85;;;4.80;99.90;;;;;;4922645;29;20492;-96
2021/03/30 06:28:09;;;;;;;18.67;6.10;;;4.80;99.90;;;;;;4922589;29;20066;-96
2021/03/30 06:30:35;;;;;;;11.35;7.22;;;4.80;99.90;;;;;;4914022;29;20020;-96
2021/03/30 06:33:03;;;;;;;14.73;7.22;;;4.80;99.90;;;;;;4923806;29;20028;-96
2021/03/30 06:35:30;;;;;;;9.50;4.85;;;4.80;99.90;;;;;;4926902;29;20473;-96
2021/03/30 06:37:56;;;;;;;9.13;4.65;;;4.80;99.90;;;;;;4929059;29;20070;-94
2021/03/30 06:40:30;;;;;;;15.25;6.55;;;4.80;99.90;;;;;;4924534;29;20103;-95
2021/03/30 06:43:00;;;;;;;12.93;4.97;;;4.90;99.90;;;;;;4923716;29;20024;-96
2021/03/30 06:45:30;;;;;;;14.75;7.28;;;4.90;99.90;;;;;;4927434;29;20034;-95
2021/03/30 06:47:59;;;;;;;14.93;6.78;;;4.90;99.90;;;;;;4923371;29;20028;-96
2021/03/30 06:50:29;;;;;;;16.55;7.28;;;4.90;99.90;;;;;;4926667;29;20024;-96
2021/03/30 06:53:07;;;;;;;13.95;7.25;;;5.00;99.90;;;;;;4926172;29;20052;-96
2021/03/30 06:55:35;;;;;;;17.38;7.22;;;5.00;99.90;;;;;;4932023;29;20039;-96
2021/03/30 06:58:06;;;;;;;14.98;6.95;;;5.00;99.90;;;;;;4931339;29;20058;-96
2021/03/30 07:00:36;;;;;;;14.48;7.00;;;5.00;99.90;;;;;;4923430;29;20070;-96
2021/03/30 07:03:08;;;;;;;12.95;6.90;;;5.00;99.90;;;;;;4922393;29;20114;-96
2021/03/30 07:05:45;;;;;;;18.33;8.88;;;5.00;99.90;;;;;;4921253;29;20040;-96
2021/03/30 07:08:17;;;;;;;14.00;6.32;;;5.00;99.90;;;;;;4942272;29;20043;-96
2021/03/30 07:10:54;;;;;;;14.98;7.03;;;5.10;99.90;;;;;;4923764;29;20024;-96
2021/03/30 07:13:22;;;;;;;26.25;10.32;;;5.10;99.90;;;;;;4927355;29;20063;-95
2021/03/30 07:15:58;;;;;;;17.38;7.38;;;5.20;99.90;;;;;;4936880;29;20115;-96
2021/03/30 07:18:36;;;;;;;17.92;7.55;;;5.20;99.90;;;;;;4925070;29;20425;-96
2021/03/30 07:21:09;;;;;;;15.30;7.88;;;5.20;99.90;;;;;;4923242;29;20028;-96
2021/03/30 07:23:38;;;;;;;41.88;8.48;;;5.30;99.90;;;;;;4913435;29;20020;-96
2021/03/30 07:26:14;;;;;;;23.30;7.00;;;5.40;99.90;;;;;;4920561;29;20036;-96
2021/03/30 07:28:45;;;;;;;19.15;8.18;;;5.40;99.90;;;;;;4921393;29;20094;-96
2021/03/30 07:31:17;;;;;;;14.20;7.03;;;5.50;99.90;;;;;;4929888;29;20038;-95
2021/03/30 07:34:10;;;;;;;13.95;7.97;;;5.60;99.90;;;;;;4924504;29;20119;-96
2021/03/30 07:37:03;;;;;;;16.45;6.22;;;5.70;99.90;;;;;;4931919;29;20051;-96
2021/03/30 07:39:59;;;;;;;10.30;5.53;;;5.80;99.90;;;;;;4948351;29;20032;-96
2021/03/30 07:42:29;;;;;;;11.45;6.18;;;5.80;99.90;;;;;;4936961;29;20035;-96
2021/03/30 07:44:59;;;;;;;11.75;5.57;;;6.00;99.90;;;;;;4935471;29;20036;-96
2021/03/30 07:47:28;;;;;;;13.83;6.07;;;6.00;99.90;;;;;;4931109;29;20035;-96
2021/03/30 07:49:55;;;;;;;10.77;5.35;;;6.10;99.90;;;;;;4927417;29;20032;-96
2021/03/30 07:52:25;;;;;;;9.45;4.55;;;6.20;99.90;;;;;;4919257;29;20139;-96
2021/03/30 07:55:16;;;;;;;7.32;4.32;;;6.30;99.90;;;;;;4905375;29;20052;-96
2021/03/30 07:57:54;;;;;;;12.18;5.47;;;6.60;99.90;;;;;;4923629;29;20023;-95
2021/03/30 08:00:32;;;;;;;10.50;5.05;;;6.70;99.90;;;;;;4925913;29;20055;-95
2021/03/30 08:03:08;;;;;;;11.00;5.30;;;6.80;99.90;;;;;;4923986;29;20122;-96
2021/03/30 08:05:34;;;;;;;15.02;5.50;;;7.00;99.90;;;;;;4927832;29;20040;-95
2021/03/30 08:08:00;;;;;;;11.40;5.18;;;7.10;99.90;;;;;;4911298;29;20040;-96
2021/03/30 08:10:29;;;;;;;10.60;4.85;;;7.20;99.90;;;;;;4928902;29;20035;-95
2021/03/30 08:13:27;;;;;;;13.25;6.05;;;7.30;99.90;;;;;;4932666;29;20028;-95
2021/03/30 08:15:57;;;;;;;10.88;5.40;;;7.40;99.90;;;;;;4937502;29;20028;-95
2021/03/30 08:18:26;;;;;;;11.27;5.57;;;7.50;99.90;;;;;;4930668;29;20020;-95
2021/03/30 08:21:05;;;;;;;8.85;4.82;;;7.60;99.90;;;;;;4920657;29;20044;-96
2021/03/30 08:23:56;;;;;;;10.05;4.63;;;7.80;99.90;;;;;;4938367;29;20036;-95
2021/03/30 08:26:23;;;;;;;;;;;7.90;99.90;;;;;;4938901;29;20035;-95
2021/03/30 08:28:49;;;;;;;15.98;5.82;;;8.10;99.90;;;;;;4936868;29;19949;-95
2021/03/30 08:31:32;;;;;;;10.40;4.93;;;8.20;99.90;;;;;;4934686;29;20040;-95
2021/03/30 08:34:00;;;;;;;11.90;5.20;;;8.40;99.90;;;;;;4934087;29;20023;-95
2021/03/30 08:36:35;;;;;;;13.65;5.53;;;8.60;99.90;;;;;;4945368;29;20016;-96
2021/03/30 08:39:05;;;;;;;13.13;5.00;;;8.70;99.90;;;;;;4941910;29;20047;-92
2021/03/30 08:41:55;;;;;;;18.43;7.47;;;8.90;99.90;;;;;;4946267;28;20158;-95
2021/03/30 08:44:32;;;;;;;14.50;6.95;;;9.00;99.90;;;;;;4919880;29;20043;-95
2021/03/30 08:46:59;;;;;;;9.18;5.28;;;9.20;99.90;;;;;;4935177;29;20059;-95
2021/03/30 08:49:25;;;;;;;13.93;6.88;;;9.30;99.90;;;;;;4929636;29;20059;-95
2021/03/30 08:51:53;;;;;;;13.82;6.47;;;9.50;99.90;;;;;;4927810;29;20508;-96
2021/03/30 08:54:24;;;;;;;10.25;5.88;;;9.70;99.90;;;;;;4927016;29;20036;-94
2021/03/30 08:56:50;;;;;;;14.80;5.72;;;9.80;99.90;;;;;;4926165;29;20031;-95
2021/03/30 08:59:19;;;;;;;11.65;5.97;;;10.00;99.90;;;;;;4926201;29;20032;-96
2021/03/30 09:01:45;;;;;;;12.18;5.60;;;10.20;99.90;;;;;;4927035;29;20507;-95
2021/03/30 09:04:11;;;;;;;10.88;5.05;;;10.30;99.90;;;;;;4924990;29;20226;-95
2021/03/30 09:06:39;;;;;;;11.95;5.50;;;10.50;99.90;;;;;;4925131;29;20043;-94
2021/03/30 09:09:20;;;;;;;15.90;5.78;;;10.70;99.90;;;;;;4926160;29;20083;-95
2021/03/30 09:11:47;;;;;;;12.15;4.88;;;10.90;99.90;;;;;;4910426;29;20036;-95
2021/03/30 09:14:17;;;;;;;11.10;4.45;;;11.10;99.90;;;;;;4923915;29;20028;-94
2021/03/30 09:16:49;;;;;;;10.77;4.07;;;11.30;99.90;;;;;;4922194;29;20077;-94
2021/03/30 09:19:40;;;;;;;8.07;3.38;;;11.60;99.90;;;;;;4923272;29;20110;-95
2021/03/30 09:22:10;;;;;;;14.95;2.97;;;11.90;99.90;;;;;;4922132;29;20482;-95
2021/03/30 09:24:50;;;;;;;9.25;2.50;;;12.10;99.90;;;;;;4923560;29;20043;-95
2021/03/30 09:27:27;;;;;;;9.18;3.13;;;12.40;99.90;;;;;;4940379;29;20043;-95
2021/03/30 09:29:54;;;;;;;9.07;4.57;;;12.70;99.90;;;;;;4922701;29;20027;-95
2021/03/30 09:32:22;;;;;;;12.20;3.20;;;12.90;99.90;;;;;;4922008;29;20032;-95
2021/03/30 09:34:47;;;;;;;9.00;3.20;;;13.10;99.90;;;;;;4922649;29;20120;-94
2021/03/30 09:37:13;;;;;;;7.00;2.75;;;13.40;99.90;;;;;;4939569;29;20040;-94
2021/03/30 09:39:40;;;;;;;6.00;2.80;;;13.60;99.90;;;;;;4922553;29;20051;-95
2021/03/30 09:42:08;;;;;;;10.93;3.45;;;13.90;99.90;;;;;;4940564;29;20031;-95
2021/03/30 09:44:45;;;;;;;7.22;2.63;;;14.10;99.00;;;;;;4923300;29;20027;-95
2021/03/30 09:47:12;;;;;;;8.35;2.85;;;14.40;98.00;;;;;;4938981;29;20390;-95
2021/03/30 09:49:38;;;;;;;9.75;3.63;;;14.70;97.30;;;;;;4922299;29;20030;-96
2021/03/30 09:52:05;;;;;;;5.05;2.40;;;14.90;96.30;;;;;;4926914;29;20048;-95
2021/03/30 09:54:38;;;;;;;11.77;3.65;;;15.20;94.90;;;;;;4911328;29;20115;-95
2021/03/30 09:57:14;;;;;;;7.22;3.00;;;15.50;94.00;;;;;;4913414;29;20040;-96
2021/03/30 09:59:48;;;;;;;10.88;2.50;;;15.80;91.10;;;;;;4910722;29;20130;-96
2021/03/30 10:02:19;;;;;;;10.30;2.42;;;16.00;89.40;;;;;;4922024;29;20107;-95
2021/03/30 10:04:50;;;;;;;15.65;3.35;;;16.20;88.40;;;;;;4935811;29;20027;-96
2021/03/30 10:07:18;;;;;;;11.95;3.10;;;16.50;86.30;;;;;;4927108;29;20039;-95
2021/03/30 10:09:59;;;;;;;11.57;2.85;;;16.70;82.60;;;;;;4921934;29;20111;-94
2021/03/30 10:12:30;;;;;;;10.10;3.10;;;16.90;79.60;;;;;;4921257;29;20405;-96
2021/03/30 10:14:56;;;;;;;10.93;2.97;;;17.00;76.50;;;;;;4911559;29;20024;-95
2021/03/30 10:17:24;;;;;;;10.73;3.58;;;17.20;75.90;;;;;;4903329;29;20119;-96
2021/03/30 10:19:51;;;;;;;8.55;2.58;;;17.30;74.50;;;;;;4908976;29;20231;-95
2021/03/30 10:22:33;;;;;;;8.25;3.28;;;17.50;74.10;;;;;;4920938;29;20059;-94
2021/03/30 10:25:21;;;;;;;6.20;2.88;;;17.70;73.90;;;;;;4921053;29;20082;-93
2021/03/30 10:27:57;;;;;;;8.90;2.83;;;17.90;73.70;;;;;;4920605;29;20035;-94
2021/03/30 10:30:50;;;;;;;7.03;2.53;;;18.20;73.10;;;;;;4920668;29;20035;-94
2021/03/30 10:33:39;;;;;;;12.82;3.03;;;18.40;72.30;;;;;;4920998;29;20139;-95
2021/03/30 10:36:06;;;;;;;8.98;3.00;;;18.60;71.60;;;;;;4921371;29;20191;-94
2021/03/30 10:38:32;;;;;;;6.68;2.90;;;18.80;70.80;;;;;;4920549;29;20099;-94
2021/03/30 10:41:06;;;;;;;12.57;3.45;;;19.00;70.00;;;;;;4920457;29;20059;-94
2021/03/30 10:43:32;;;;;;;9.38;2.50;;;19.20;69.10;;;;;;4902758;29;20028;-93
2021/03/30 10:45:58;;;;;;;11.60;3.00;;;19.30;67.90;;;;;;4902118;29;20094;-93
2021/03/30 10:48:24;;;;;;;11.38;2.88;;;19.40;66.70;;;;;;4915727;29;20076;-94
2021/03/30 10:50:54;;;;;;;7.85;2.75;;;19.50;66.30;;;;;;4904090;29;20032;-93
2021/03/30 10:53:21;;;;;;;12.65;3.28;;;19.50;64.00;;;;;;4900949;29;20048;-93
2021/03/30 10:55:48;;;;;;;8.45;3.28;;;19.60;64.30;;;;;;4901024;29;20557;-94
2021/03/30 10:58:15;;;;;;;12.40;3.15;;;19.80;64.50;;;;;;4901004;29;20044;-93
2021/03/30 11:00:42;;;;;;;10.27;3.05;;;20.00;64.30;;;;;;4905003;29;20546;-93
2021/03/30 11:03:07;;;;;;;12.05;3.10;;;20.20;63.70;;;;;;4926523;29;20115;-92
2021/03/30 11:05:37;;;;;;;10.85;3.20;;;20.40;63.40;;;;;;4928775;29;20024;-93
2021/03/30 11:08:03;;;;;;;7.35;3.13;;;20.60;62.50;;;;;;4926430;29;20055;-93
2021/03/30 11:10:31;;;;;;;12.35;3.25;;;20.70;61.60;;;;;;4921653;29;20047;-93
2021/03/30 11:12:57;;;;;;;7.90;3.10;;;20.80;61.40;;;;;;4920826;29;20122;-95
2021/03/30 11:15:23;;;;;;;8.88;2.72;;;20.90;61.50;;;;;;4938089;29;20063;-93
2021/03/30 11:17:48;;;;;;;10.45;3.13;;;21.10;61.80;;;;;;4937510;29;20058;-93
2021/03/30 11:20:17;;;;;;;8.10;3.17;;;21.40;61.70;;;;;;4919714;29;20490;-93
2021/03/30 11:22:45;;;;;;;9.80;2.70;;;21.50;60.10;;;;;;4919853;29;20187;-94
2021/03/30 11:25:12;;;;;;;12.20;3.05;;;21.50;59.80;;;;;;4920479;29;20036;-94
2021/03/30 11:27:39;;;;;;;8.95;2.72;;;21.70;59.80;;;;;;4920050;29;20032;-91
2021/03/30 11:30:15;;;;;;;10.57;3.85;;;21.80;59.70;;;;;;4920149;29;20027;-93
2021/03/30 11:35:35;;;;;;;7.57;2.90;;;22.00;59.10;;;;;;4922997;29;20149;-93
2021/03/30 11:40:29;;;;;;;15.55;3.10;;;22.10;56.20;;;;;;4918107;29;20028;-94
2021/03/30 11:42:55;;;;;;;8.75;3.05;;;22.00;56.60;;;;;;4901256;29;20031;-94
2021/03/30 11:45:20;;;;;;;14.77;3.17;;;22.00;56.80;;;;;;4902877;29;20087;-94
2021/03/30 11:47:46;;;;;;;6.47;3.05;;;22.10;57.10;;;;;;4904933;29;20032;-93
2021/03/30 11:50:12;;;;;;;7.82;3.10;;;22.20;56.40;;;;;;4910543;29;20028;-93
2021/03/30 11:52:38;;;;;;;8.00;3.40;;;22.30;56.50;;;;;;4912656;29;20048;-94
2021/03/30 11:55:05;;;;;;;7.82;2.53;;;22.50;56.20;;;;;;4923807;29;20016;-94
2021/03/30 11:57:31;;;;;;;8.10;3.10;;;22.70;55.70;;;;;;4931728;28;20111;-93
2021/03/30 11:59:57;;;;;;;9.68;3.45;;;22.80;54.90;;;;;;4925942;29;20042;-94
2021/03/30 12:02:23;;;;;;;6.95;2.63;;;22.80;54.50;;;;;;4923672;29;20099;-93
2021/03/30 12:04:48;;;;;;;7.43;3.53;;;22.80;54.90;;;;;;4922406;29;20028;-93
2021/03/30 12:07:14;;;;;;;9.88;2.92;;;22.90;54.70;;;;;;4921336;29;20050;-94
2021/03/30 12:09:40;;;;;;;8.75;3.70;;;23.10;54.80;;;;;;4924026;29;20505;-94
2021/03/30 12:12:06;;;;;;;7.70;2.80;;;23.30;54.50;;;;;;4922624;29;20023;-92
2021/03/30 12:14:32;;;;;;;6.50;3.03;;;23.40;54.20;;;;;;4921823;29;20035;-95
2021/03/30 12:16:58;;;;;;;9.75;3.30;;;23.60;54.40;;;;;;4922670;29;20028;-92
2021/03/30 12:19:24;;;;;;;10.32;3.30;;;23.90;54.40;;;;;;4920631;29;20103;-93
2021/03/30 12:21:52;;;;;;;9.77;3.58;;;24.00;54.00;;;;;;4919714;29;20099;-93
2021/03/30 12:24:18;;;;;;;7.97;3.30;;;24.10;52.80;;;;;;4914915;29;20035;-93
2021/03/30 12:26:44;;;;;;;10.38;3.30;;;24.20;52.10;;;;;;4919896;29;20036;-92
2021/03/30 12:29:09;;;;;;;11.95;4.00;;;24.20;52.50;;;;;;4920090;29;20442;-94
2021/03/30 12:31:35;;;;;;;7.78;3.58;;;24.30;52.60;;;;;;4920402;29;20406;-93
2021/03/30 12:34:01;;;;;;;10.15;3.22;;;24.40;52.00;;;;;;4920638;29;20503;-93
2021/03/30 12:36:27;;;;;;;12.13;3.72;;;24.40;51.80;;;;;;4920265;29;20078;-92
2021/03/30 12:38:53;;;;;;;6.95;3.47;;;24.50;51.60;;;;;;4919470;29;20490;-94
2021/03/30 12:41:21;;;;;;;11.90;4.00;;;24.60;52.00;;;;;;4920672;29;20087;-92
2021/03/30 12:43:47;;;;;;;11.07;3.97;;;24.50;51.70;;;;;;4920391;29;20079;-95
2021/03/30 12:46:13;;;;;;;13.70;3.63;;;24.50;51.80;;;;;;4919994;29;20434;-93
2021/03/30 12:48:39;;;;;;;8.48;3.40;;;24.50;51.60;;;;;;4920084;29;20035;-94
2021/03/30 12:51:06;;;;;;;10.48;4.20;;;24.50;51.40;;;;;;4923731;29;20032;-94
2021/03/30 12:53:32;;;;;;;9.40;3.60;;;24.40;50.70;;;;;;4925523;29;20043;-95
2021/03/30 12:55:58;;;;;;;11.43;4.40;;;24.30;51.00;;;;;;4924126;29;20028;-94
2021/03/30 12:58:24;;;;;;;10.52;3.70;;;24.10;51.00;;;;;;4926565;29;20531;-96
2021/03/30 13:00:50;;;;;;;11.05;4.07;;;24.10;51.10;;;;;;4925310;29;20036;-94
2021/03/30 13:03:15;;;;;;;7.47;3.45;;;24.10;51.40;;;;;;4924929;29;20024;-93
2021/03/30 13:05:41;;;;;;;9.80;3.30;;;24.10;51.70;;;;;;4925544;29;20026;-94
2021/03/30 13:08:07;;;;;;;8.15;3.00;;;24.30;51.90;;;;;;4921705;29;20036;-93
2021/03/30 13:10:33;;;;;;;9.52;3.55;;;24.40;52.00;;;;;;4924262;29;20161;-93